Nyk Deneb — 3EOF8 — position and weather

sailwx.info

Track history (hours):
 
Tides and Currents Weather Stations Pressure Air Temp Water Temp Dewpoint Dewpoint Depression Visibility Wind Speed Wind Dir Waves Ship Positions

Nyk Deneb

Last reported at 2017-Jul-16 07:28 UTC. Time now 2017-Jul-20 20:24 UTC.
Position N 31°47' W 080°19'.

Length 294 m; draft 11.9 m.

Type: Ship (hazmat cat B). MMSI: 355717000.

Date/timePositionNaut miles runAvg speedWind from/ knotsBaromVisibWave heightAir tempDewpointWater temp
2017-Jul-16 07:28N 31°47' W 080°19'714.5
2017-Jul-16 07:00N 31°51' W 080°25'714.5
2017-Jul-16 06:30N 31°54' W 080°33'714.4
2017-Jul-16 06:00N 31°57' W 080°41'612.5
2017-Jul-16 05:30N 31°60' W 080°47'611.3
2017-Jul-16 05:00N 32°02' W 080°53'5 9.8
2017-Jul-16 04:30N 32°04' W 080°58'3 5.1
2017-Jul-16 04:00N 32°06' W 081°01'2 4.6
2017-Jul-16 03:30N 32°05' W 081°04'2 4.3
2017-Jul-16 03:00N 32°06' W 081°06'1 2.6
2017-Jul-16 02:30N 32°06' W 081°07'1 2.4
2017-Jul-16 01:59N 32°07' W 081°08'0 0.0
2017-Jul-16 01:29N 32°07' W 081°08'0 0.0
2017-Jul-16 00:53N 32°07' W 081°08'0 0.0
2017-Jul-16 00:29N 32°07' W 081°08'0 0.0
2017-Jul-15 23:59N 32°07' W 081°08'0 0.0
2017-Jul-15 23:29N 32°07' W 081°08'0 0.0
2017-Jul-15 22:59N 32°07' W 081°08'0 0.0
2017-Jul-15 22:29N 32°07' W 081°08'0 0.0
2017-Jul-15 21:59N 32°07' W 081°08'0 0.0
2017-Jul-15 21:29N 32°07' W 081°08'0 0.0
2017-Jul-15 20:59N 32°07' W 081°08'0 0.0
2017-Jul-15 20:29N 32°07' W 081°08'0 0.0
2017-Jul-15 19:59N 32°07' W 081°08'0 0.0
2017-Jul-15 19:29N 32°07' W 081°08'0 0.0
2017-Jul-15 18:59N 32°07' W 081°08'0 0.0
2017-Jul-15 18:29N 32°07' W 081°08'0 0.0
2017-Jul-15 17:53N 32°07' W 081°08'0 0.0
2017-Jul-15 17:29N 32°07' W 081°08'0 0.0
2017-Jul-15 16:59N 32°07' W 081°08'0 0.0
2017-Jul-15 16:29N 32°07' W 081°08'0 0.0
2017-Jul-15 15:59N 32°07' W 081°08'0 0.0
2017-Jul-15 15:29N 32°07' W 081°08'0 0.0
2017-Jul-15 14:59N 32°07' W 081°08'0 0.0
2017-Jul-15 13:59N 32°07' W 081°08'0 0.0
2017-Jul-15 13:29N 32°07' W 081°08'0 0.0
2017-Jul-15 12:58N 32°07' W 081°08'0 0.0
2017-Jul-15 12:28N 32°07' W 081°08'0 0.0
2017-Jul-15 11:58N 32°07' W 081°08'0 0.0
2017-Jul-15 11:22N 32°07' W 081°08'0 0.0
2017-Jul-15 10:58N 32°07' W 081°08'0 0.0
2017-Jul-15 10:10N 32°07' W 081°08'0 0.0
2017-Jul-15 09:59N 32°07' W 081°08'0 0.0
2017-Jul-15 09:30N 32°07' W 081°08'0 0.0
2017-Jul-15 08:54N 32°07' W 081°08'0 0.0
2017-Jul-15 08:30N 32°07' W 081°08'0 0.0
2017-Jul-15 07:54N 32°07' W 081°08'0 0.0
2017-Jul-15 07:18N 32°07' W 081°08'0 0.0
2017-Jul-15 07:00N 32°07' W 081°08'0 0.0
2017-Jul-15 06:30N 32°07' W 081°08'0 0.0
2017-Jul-15 05:54N 32°07' W 081°08'0 0.0
2017-Jul-15 05:30N 32°07' W 081°08'0 0.0
2017-Jul-15 05:00N 32°07' W 081°08'0 0.4
2017-Jul-15 04:30N 32°08' W 081°08'3 5.6
2017-Jul-15 04:00N 32°05' W 081°06'3 5.8
2017-Jul-15 03:29N 32°05' W 081°03'4 7.8
2017-Jul-15 03:00N 32°04' W 080°58'510.7
2017-Jul-15 02:30N 32°02' W 080°52'612.1
2017-Jul-15 02:00N 31°59' W 080°46'611.2
2017-Jul-15 01:30N 31°57' W 080°40'611.7
2017-Jul-15 01:00N 31°56' W 080°33'5 9.0
2017-Jul-15 00:30N 31°56' W 080°28'715.1
2017-Jul-15 00:00N 31°56' W 080°19'815.5
2017-Jul-14 23:29N 31°56' W 080°10'715.4
2017-Jul-14 23:00N 31°56' W 080°01'815.5
2017-Jul-14 22:30N 31°56' W 079°52'815.5
2017-Jul-14 22:00N 31°56' W 079°43'815.4
2017-Jul-14 21:30N 31°56' W 079°34'1015.2
2017-Jul-14 20:51N 31°56' W 079°22'615.8
2017-Jul-14 20:29N 31°56' W 079°15'  
2017-Jul-08 19:00N 48°06' W 026°48'68218.7 160 / 271024.3 5.4 16.012.620.2
2017-Jul-07 06:28N 48°60' W 009°41'919.7
2017-Jul-07 06:00N 49°03' W 009°28'1019.7
2017-Jul-07 05:30N 49°06' W 009°14'1419.5
2017-Jul-07 04:48N 49°11' W 008°54'619.6
2017-Jul-07 04:30N 49°13' W 008°45'1219.4
2017-Jul-07 03:54N 49°17' W 008°29'819.6
2017-Jul-07 03:30N 49°19' W 008°17'1019.4
2017-Jul-07 03:00N 49°22' W 008°03'1019.3
2017-Jul-07 02:30N 49°26' W 007°50'1019.3
2017-Jul-07 02:00N 49°29' W 007°35'919.2
2017-Jul-07 01:30N 49°32' W 007°22'1019.3
2017-Jul-07 01:00N 49°35' W 007°08'1019.3
2017-Jul-07 00:30N 49°39' W 006°54'1019.3
2017-Jul-07 00:00N 49°42' W 006°39'918.5
2017-Jul-06 23:30N 49°43' W 006°25'416.8
2017-Jul-06 23:16N 49°44' W 006°19'  
Track history (hours):
 
Tides and Currents Weather Stations Pressure Air Temp Water Temp Dewpoint Dewpoint Depression Visibility Wind Speed Wind Dir Waves Ship Positions

Nyk Deneb

Last reported at 2017-Jul-16 07:28 UTC. Time now 2017-Jul-20 20:24 UTC.
Position N 31°47' W 080°19'.

Length 294 m; draft 11.9 m.

Type: Ship (hazmat cat B). MMSI: 355717000.

Date/timePositionNaut miles runAvg speedWind from/ knotsBaromVisibWave heightAir tempDewpointWater temp
2017-Jul-16 07:28N 31°47' W 080°19'714.5
2017-Jul-16 07:00N 31°51' W 080°25'714.5
2017-Jul-16 06:30N 31°54' W 080°33'714.4
2017-Jul-16 06:00N 31°57' W 080°41'612.5
2017-Jul-16 05:30N 31°60' W 080°47'611.3
2017-Jul-16 05:00N 32°02' W 080°53'5 9.8
2017-Jul-16 04:30N 32°04' W 080°58'3 5.1
2017-Jul-16 04:00N 32°06' W 081°01'2 4.6
2017-Jul-16 03:30N 32°05' W 081°04'2 4.3
2017-Jul-16 03:00N 32°06' W 081°06'1 2.6
2017-Jul-16 02:30N 32°06' W 081°07'1 2.4
2017-Jul-16 01:59N 32°07' W 081°08'0 0.0
2017-Jul-16 01:29N 32°07' W 081°08'0 0.0
2017-Jul-16 00:53N 32°07' W 081°08'0 0.0
2017-Jul-16 00:29N 32°07' W 081°08'0 0.0
2017-Jul-15 23:59N 32°07' W 081°08'0 0.0
2017-Jul-15 23:29N 32°07' W 081°08'0 0.0
2017-Jul-15 22:59N 32°07' W 081°08'0 0.0
2017-Jul-15 22:29N 32°07' W 081°08'0 0.0
2017-Jul-15 21:59N 32°07' W 081°08'0 0.0
2017-Jul-15 21:29N 32°07' W 081°08'0 0.0
2017-Jul-15 20:59N 32°07' W 081°08'0 0.0
2017-Jul-15 20:29N 32°07' W 081°08'0 0.0
2017-Jul-15 19:59N 32°07' W 081°08'0 0.0
2017-Jul-15 19:29N 32°07' W 081°08'0 0.0
2017-Jul-15 18:59N 32°07' W 081°08'0 0.0
2017-Jul-15 18:29N 32°07' W 081°08'0 0.0
2017-Jul-15 17:53N 32°07' W 081°08'0 0.0
2017-Jul-15 17:29N 32°07' W 081°08'0 0.0
2017-Jul-15 16:59N 32°07' W 081°08'0 0.0
2017-Jul-15 16:29N 32°07' W 081°08'0 0.0
2017-Jul-15 15:59N 32°07' W 081°08'0 0.0
2017-Jul-15 15:29N 32°07' W 081°08'0 0.0
2017-Jul-15 14:59N 32°07' W 081°08'0 0.0
2017-Jul-15 13:59N 32°07' W 081°08'0 0.0
2017-Jul-15 13:29N 32°07' W 081°08'0 0.0
2017-Jul-15 12:58N 32°07' W 081°08'0 0.0
2017-Jul-15 12:28N 32°07' W 081°08'0 0.0
2017-Jul-15 11:58N 32°07' W 081°08'0 0.0
2017-Jul-15 11:22N 32°07' W 081°08'0 0.0
2017-Jul-15 10:58N 32°07' W 081°08'0 0.0
2017-Jul-15 10:10N 32°07' W 081°08'0 0.0
2017-Jul-15 09:59N 32°07' W 081°08'0 0.0
2017-Jul-15 09:30N 32°07' W 081°08'0 0.0
2017-Jul-15 08:54N 32°07' W 081°08'0 0.0
2017-Jul-15 08:30N 32°07' W 081°08'0 0.0
2017-Jul-15 07:54N 32°07' W 081°08'0 0.0
2017-Jul-15 07:18N 32°07' W 081°08'0 0.0
2017-Jul-15 07:00N 32°07' W 081°08'0 0.0
2017-Jul-15 06:30N 32°07' W 081°08'0 0.0
2017-Jul-15 05:54N 32°07' W 081°08'0 0.0
2017-Jul-15 05:30N 32°07' W 081°08'0 0.0
2017-Jul-15 05:00N 32°07' W 081°08'0 0.4
2017-Jul-15 04:30N 32°08' W 081°08'3 5.6
2017-Jul-15 04:00N 32°05' W 081°06'3 5.8
2017-Jul-15 03:29N 32°05' W 081°03'4 7.8
2017-Jul-15 03:00N 32°04' W 080°58'510.7
2017-Jul-15 02:30N 32°02' W 080°52'612.1
2017-Jul-15 02:00N 31°59' W 080°46'611.2
2017-Jul-15 01:30N 31°57' W 080°40'611.7
2017-Jul-15 01:00N 31°56' W 080°33'5 9.0
2017-Jul-15 00:30N 31°56' W 080°28'715.1
2017-Jul-15 00:00N 31°56' W 080°19'815.5
2017-Jul-14 23:29N 31°56' W 080°10'715.4
2017-Jul-14 23:00N 31°56' W 080°01'815.5
2017-Jul-14 22:30N 31°56' W 079°52'815.5
2017-Jul-14 22:00N 31°56' W 079°43'815.4
2017-Jul-14 21:30N 31°56' W 079°34'1015.2
2017-Jul-14 20:51N 31°56' W 079°22'615.8
2017-Jul-14 20:29N 31°56' W 079°15'  
2017-Jul-08 19:00N 48°06' W 026°48'68218.7 160 / 271024.3 5.4 16.012.620.2
2017-Jul-07 06:28N 48°60' W 009°41'919.7
2017-Jul-07 06:00N 49°03' W 009°28'1019.7
2017-Jul-07 05:30N 49°06' W 009°14'1419.5
2017-Jul-07 04:48N 49°11' W 008°54'619.6
2017-Jul-07 04:30N 49°13' W 008°45'1219.4
2017-Jul-07 03:54N 49°17' W 008°29'819.6
2017-Jul-07 03:30N 49°19' W 008°17'1019.4
2017-Jul-07 03:00N 49°22' W 008°03'1019.3
2017-Jul-07 02:30N 49°26' W 007°50'1019.3
2017-Jul-07 02:00N 49°29' W 007°35'919.2
2017-Jul-07 01:30N 49°32' W 007°22'1019.3
2017-Jul-07 01:00N 49°35' W 007°08'1019.3
2017-Jul-07 00:30N 49°39' W 006°54'1019.3
2017-Jul-07 00:00N 49°42' W 006°39'918.5
2017-Jul-06 23:30N 49°43' W 006°25'416.8
2017-Jul-06 23:16N 49°44' W 006°19'  

Dump ship's entire track history